Time;durP1;ratioP1;P1;durP2;ratioP2;P2;SDS_P1;SDS_P2;PMS_P1;PMS_P2;Temp;Humidity;BMP_temperature;BMP_pressure;BME280_temperature;BME280_humidity;BME280_pressure;Samples;Min_cycle;Max_cycle;Signal;HPM_P1;HPM_P2
2023/12/23 00:03:43;;;;;;;4.15;1.55;;;;;;;17.94;38.05;101085.16;16103505;19;130630;-60
2023/12/23 00:09:05;;;;;;;5.47;1.13;;;;;;;17.94;38.26;101079.63;16103766;19;130487;-52
2023/12/23 00:14:28;;;;;;;7.28;1.58;;;;;;;17.88;38.53;101066.72;16101377;19;132181;-57
2023/12/23 00:19:50;;;;;;;5.25;1.40;;;;;;;17.84;38.16;101075.50;16108849;19;129771;-57
2023/12/23 00:25:12;;;;;;;4.10;1.20;;;;;;;17.80;38.30;101090.91;16105843;19;130203;-67
2023/12/23 00:30:34;;;;;;;5.85;1.40;;;;;;;17.78;38.19;101079.22;16107701;19;129846;-59
2023/12/23 00:35:56;;;;;;;3.67;1.20;;;;;;;17.77;38.19;101080.28;16107773;19;130321;-59
2023/12/23 00:41:18;;;;;;;3.65;1.42;;;;;;;17.74;38.23;101072.47;16118740;19;129559;-57
2023/12/23 00:46:40;;;;;;;4.78;1.33;;;;;;;17.72;38.48;101073.78;16124582;19;130424;-58
2023/12/23 00:52:02;;;;;;;4.05;0.90;;;;;;;17.68;38.39;101065.94;16121479;19;129027;-61
2023/12/23 00:57:24;;;;;;;5.20;1.33;;;;;;;17.67;38.69;101067.03;16120703;19;130680;-54
2023/12/23 01:02:46;;;;;;;4.10;1.15;;;;;;;17.65;38.74;101069.22;16122491;19;131206;-59
2023/12/23 01:08:08;;;;;;;4.40;1.08;;;;;;;17.65;38.57;101060.03;16117448;19;129837;-59
2023/12/23 01:13:30;;;;;;;4.35;1.10;;;;;;;17.62;38.84;101052.22;16120569;19;130846;-56
2023/12/23 01:18:52;;;;;;;3.85;1.55;;;;;;;17.61;38.67;101047.75;16117019;19;129657;-55
2023/12/23 01:24:14;;;;;;;4.32;1.23;;;;;;;17.58;38.82;101038.00;16117315;19;130762;-56
2023/12/23 01:29:36;;;;;;;3.80;1.23;;;;;;;17.57;39.11;101035.50;16118481;19;131884;-60
2023/12/23 01:34:58;;;;;;;3.28;1.10;;;;;;;17.56;38.67;101050.41;16118136;19;129686;-63
2023/12/23 01:40:20;;;;;;;3.47;1.13;;;;;;;17.53;38.61;101047.00;16113485;19;130890;-51
2023/12/23 01:45:42;;;;;;;4.25;1.00;;;;;;;17.51;38.79;101027.03;16118858;19;129313;-54
2023/12/23 01:51:04;;;;;;;3.72;1.10;;;;;;;17.51;38.96;101045.56;16119328;19;129520;-54
2023/12/23 01:56:26;;;;;;;3.33;1.15;;;;;;;17.48;39.15;101044.09;16114432;19;130666;-56
2023/12/23 02:01:48;;;;;;;3.83;0.82;;;;;;;17.49;39.10;101047.72;16114576;19;129525;-57
2023/12/23 02:07:10;;;;;;;4.25;1.10;;;;;;;17.47;38.89;101036.03;16117429;19;131090;-53
2023/12/23 02:12:42;;;;;;;4.85;1.52;;;;;;;17.45;39.11;101025.22;16113503;19;129712;-65
2023/12/23 02:18:04;;;;;;;3.03;0.82;;;;;;;17.44;39.05;101030.97;16116277;19;129339;-62
2023/12/23 02:23:26;;;;;;;3.45;1.02;;;;;;;17.42;39.38;101028.44;16116727;19;131162;-59
2023/12/23 02:28:51;;;;;;;3.47;1.00;;;;;;;17.40;39.41;101014.00;16118110;19;131005;-64
2023/12/23 02:34:15;;;;;;;2.95;1.20;;;;;;;17.39;39.40;101012.31;16112912;19;130749;-59
2023/12/23 02:39:37;;;;;;;2.58;0.60;;;;;;;17.39;39.21;101015.06;16112080;19;130537;-62
2023/12/23 02:44:59;;;;;;;3.17;1.00;;;;;;;17.38;39.48;101029.97;16102406;19;130425;-55
2023/12/23 02:50:21;;;;;;;2.17;0.80;;;;;;;17.37;39.05;101003.41;16111391;19;130241;-55
2023/12/23 02:55:43;;;;;;;2.28;0.70;;;;;;;17.36;39.49;101005.34;16113022;19;131494;-56
2023/12/23 03:01:08;;;;;;;2.75;0.70;;;;;;;17.35;39.12;101002.81;16112114;19;129512;-57
2023/12/23 03:06:30;;;;;;;3.10;0.80;;;;;;;17.33;39.53;101013.28;16106831;19;129972;-59
2023/12/23 03:11:52;;;;;;;2.65;0.70;;;;;;;17.31;39.28;101007.97;16108405;19;131277;-56
2023/12/23 03:17:14;;;;;;;1.98;0.60;;;;;;;17.32;39.43;101006.06;16106338;19;129834;-54
2023/12/23 03:22:37;;;;;;;2.60;0.70;;;;;;;17.30;39.41;101000.75;16108195;19;133998;-53
2023/12/23 03:27:59;;;;;;;4.20;0.80;;;;;;;17.30;39.22;100986.09;16107214;19;130007;-54
2023/12/23 03:33:21;;;;;;;2.40;0.70;;;;;;;17.28;39.25;100993.75;16101880;19;131809;-59
2023/12/23 03:38:43;;;;;;;2.40;0.55;;;;;;;17.27;39.58;100994.84;16107911;19;130472;-56
2023/12/23 03:44:05;;;;;;;2.88;0.80;;;;;;;17.24;39.40;100977.63;16109803;19;131420;-55
2023/12/23 03:49:27;;;;;;;3.25;0.88;;;;;;;17.23;39.71;100981.47;16106935;19;129570;-57
2023/12/23 03:54:48;;;;;;;2.50;0.70;;;;;;;17.23;39.63;100980.66;16104993;19;131780;-53
2023/12/23 04:00:11;;;;;;;2.47;0.70;;;;;;;17.20;39.33;100975.59;16111113;19;130108;-54
2023/12/23 04:05:33;;;;;;;1.65;0.70;;;;;;;17.19;39.53;100958.16;16108912;19;129337;-54
2023/12/23 04:10:55;;;;;;;2.25;0.63;;;;;;;17.18;39.60;100964.78;16112166;19;130213;-56
2023/12/23 04:16:17;;;;;;;4.05;0.75;;;;;;;17.18;39.40;100952.84;16121617;19;130306;-54
2023/12/23 04:21:39;;;;;;;3.30;0.80;;;;;;;17.17;39.46;100959.50;16121405;19;130945;-55
2023/12/23 04:27:01;;;;;;;2.30;0.52;;;;;;;17.15;39.65;100945.88;16125144;19;129954;-52
2023/12/23 04:32:24;;;;;;;2.45;0.95;;;;;;;17.14;39.61;100933.13;16121431;19;130878;-60
2023/12/23 04:37:46;;;;;;;2.67;0.63;;;;;;;17.14;39.49;100937.84;16122668;19;129939;-54
2023/12/23 04:43:09;;;;;;;2.55;0.85;;;;;;;17.14;39.60;100937.84;16118384;19;130919;-55
2023/12/23 04:48:31;;;;;;;3.20;0.60;;;;;;;17.12;39.33;100937.22;16119643;19;130376;-54
2023/12/23 04:53:53;;;;;;;3.38;0.70;;;;;;;17.10;39.76;100914.50;16119215;19;129821;-52
2023/12/23 04:59:14;;;;;;;2.90;0.80;;;;;;;17.11;39.34;100928.06;16119421;19;129632;-53
2023/12/23 05:04:36;;;;;;;1.80;0.63;;;;;;;17.09;39.35;100924.72;16120831;19;131329;-55
2023/12/23 05:09:58;;;;;;;1.42;0.60;;;;;;;17.10;39.33;100931.94;16117762;19;131656;-53
2023/12/23 05:15:20;;;;;;;3.83;0.70;;;;;;;17.08;39.54;100918.34;16117287;19;130087;-51
2023/12/23 05:20:42;;;;;;;2.38;0.95;;;;;;;17.07;39.36;100918.59;16117351;19;132165;-55
2023/12/23 05:26:05;;;;;;;2.38;0.75;;;;;;;17.04;39.40;100905.25;16114838;19;130080;-51
2023/12/23 05:31:26;;;;;;;3.17;0.68;;;;;;;17.03;39.43;100911.84;16115715;19;130289;-52
2023/12/23 05:36:48;;;;;;;2.83;0.70;;;;;;;17.03;39.28;100925.66;16116330;19;130353;-54
2023/12/23 05:42:10;;;;;;;3.03;0.80;;;;;;;17.02;39.71;100910.16;16112476;19;130353;-53
2023/12/23 05:47:32;;;;;;;1.42;0.60;;;;;;;17.01;39.47;100911.22;16113143;19;129955;-53
2023/12/23 05:52:54;;;;;;;1.63;0.50;;;;;;;17.00;39.33;100920.59;16117372;19;131233;-52
2023/12/23 05:58:16;;;;;;;2.95;0.95;;;;;;;17.00;39.40;100926.13;16113365;19;131724;-56
2023/12/23 06:03:38;;;;;;;2.13;0.70;;;;;;;16.99;39.55;100907.84;16113861;19;129633;-54
2023/12/23 06:09:00;;;;;;;2.47;0.82;;;;;;;17.02;39.63;100921.22;16108694;19;130213;-55
2023/12/23 06:14:22;;;;;;;2.60;0.60;;;;;;;17.12;39.15;100924.22;16111057;19;130225;-54
2023/12/23 06:19:44;;;;;;;3.30;0.52;;;;;;;17.26;39.32;100902.78;16110847;19;129442;-54
2023/12/23 06:25:06;;;;;;;5.75;1.17;;;;;;;17.43;39.28;100919.50;16114497;19;132018;-54
2023/12/23 06:30:28;;;;;;;6.32;1.17;;;;;;;17.59;39.19;100914.41;16119216;19;129393;-54
2023/12/23 06:35:51;;;;;;;3.28;1.30;;;;;;;17.72;39.12;100903.09;16109717;19;132547;-55
2023/12/23 06:41:12;;;;;;;3.75;1.02;;;;;;;17.81;38.90;100906.31;16117579;19;131126;-53
2023/12/23 06:46:34;;;;;;;6.18;0.90;;;;;;;17.91;38.81;100908.47;16114456;19;131211;-57
2023/12/23 06:51:56;;;;;;;2.78;0.80;;;;;;;18.02;39.13;100915.94;16109285;19;130921;-53
2023/12/23 06:57:18;;;;;;;4.65;1.15;;;;;;;18.13;38.65;100915.06;16118824;19;129995;-53
2023/12/23 07:02:40;;;;;;;2.88;0.50;;;;;;;18.23;38.97;100900.63;16114763;19;130161;-53
2023/12/23 07:08:03;;;;;;;3.03;0.90;;;;;;;18.39;38.78;100920.34;16110149;19;128973;-51
2023/12/23 07:13:25;;;;;;;6.00;1.10;;;;;;;18.50;38.57;100925.03;16110769;19;132762;-52
2023/12/23 07:18:46;;;;;;;8.60;1.17;;;;;;;18.56;38.50;100920.44;16116344;19;130918;-53
2023/12/23 07:24:09;;;;;;;20.38;2.20;;;;;;;18.65;38.85;100907.88;16111403;19;129665;-49
2023/12/23 07:29:30;;;;;;;20.45;2.35;;;;;;;18.82;38.82;100929.25;16115037;19;130415;-50
2023/12/23 07:34:56;;;;;;;22.33;2.72;;;;;;;18.90;39.28;100912.22;16114398;19;132569;-54
2023/12/23 07:40:18;;;;;;;21.38;2.78;;;;;;;19.06;40.16;100924.41;16109144;19;130519;-59
2023/12/23 07:45:41;;;;;;;22.92;2.53;;;;;;;19.15;40.36;100922.09;16110545;19;129463;-57
2023/12/23 07:51:07;;;;;;;15.93;2.50;;;;;;;19.11;40.93;100913.44;16113225;19;129720;-57
2023/12/23 07:56:29;;;;;;;10.32;1.70;;;;;;;19.04;40.29;100926.59;16106888;19;131155;-58
2023/12/23 08:01:51;;;;;;;10.50;1.50;;;;;;;18.95;39.82;100922.56;16108800;19;131503;-57
2023/12/23 08:07:13;;;;;;;19.25;2.40;;;;;;;18.87;40.31;100926.56;16114396;19;130498;-58
2023/12/23 08:12:35;;;;;;;11.65;2.08;;;;;;;18.83;40.31;100922.63;16104745;19;131006;-57
2023/12/23 08:17:57;;;;;;;11.30;1.77;;;;;;;18.81;40.19;100919.25;16109740;19;130811;-57
2023/12/23 08:23:19;;;;;;;14.88;1.70;;;;;;;18.75;40.00;100927.44;16106943;19;130316;-57
2023/12/23 08:28:42;;;;;;;10.57;1.42;;;;;;;18.71;40.61;100942.88;16106247;19;129739;-56
2023/12/23 08:34:07;;;;;;;9.20;2.20;;;;;;;18.69;40.31;100936.78;16106212;19;130019;-59
2023/12/23 08:39:30;;;;;;;17.20;1.92;;;;;;;18.71;40.48;100939.28;16105265;19;129498;-58
2023/12/23 08:44:52;;;;;;;19.05;1.98;;;;;;;18.72;40.20;100936.25;16106350;19;130112;-55
2023/12/23 08:50:14;;;;;;;18.02;2.20;;;;;;;18.74;40.69;100945.16;16104292;19;131199;-53
2023/12/23 08:55:36;;;;;;;22.48;3.00;;;;;;;18.80;40.34;100931.44;16101509;19;130036;-56
2023/12/23 09:00:58;;;;;;;22.38;2.55;;;;;;;18.86;40.51;100958.13;16115639;19;130576;-54
2023/12/23 09:06:20;;;;;;;18.40;2.17;;;;;;;18.93;40.48;100928.34;16123038;19;130100;-55
2023/12/23 09:11:43;;;;;;;22.88;1.98;;;;;;;19.00;39.92;100937.34;16117240;19;129696;-55
2023/12/23 09:17:06;;;;;;;9.80;1.73;;;;;;;19.06;40.07;100941.91;16120764;19;129448;-52
2023/12/23 09:22:28;;;;;;;18.05;1.90;;;;;;;19.10;39.75;100946.94;16120956;19;129512;-55
2023/12/23 09:27:50;;;;;;;10.35;1.73;;;;;;;19.12;39.64;100973.34;16122550;19;130219;-54
2023/12/23 09:33:12;;;;;;;9.38;2.00;;;;;;;19.14;39.56;100979.47;16118493;19;130411;-52
2023/12/23 09:38:34;;;;;;;10.30;1.60;;;;;;;19.25;39.36;100975.00;16121257;19;130407;-53
2023/12/23 09:43:56;;;;;;;8.88;1.42;;;;;;;19.37;39.42;100986.03;16119374;19;130880;-53
2023/12/23 09:49:18;;;;;;;6.95;1.13;;;;;;;19.44;39.49;100995.03;16116914;19;129406;-54
2023/12/23 09:54:47;;;;;;;3.35;0.77;;;;;;;19.51;39.22;100997.66;16115975;19;129835;-55
2023/12/23 10:00:12;;;;;;;4.57;0.90;;;;;;;19.56;39.20;101002.44;16120688;19;129422;-55
2023/12/23 10:05:40;;;;;;;5.60;1.10;;;;;;;19.61;38.88;101003.38;16118218;19;131390;-55
2023/12/23 10:11:03;;;;;;;4.70;0.95;;;;;;;19.64;38.78;101008.44;16111890;19;129718;-54
2023/12/23 10:16:25;;;;;;;4.05;1.13;;;;;;;19.68;38.88;101004.06;16114539;19;130116;-55
2023/12/23 10:21:48;;;;;;;5.88;0.90;;;;;;;19.73;38.66;100996.91;16119184;19;130423;-49
2023/12/23 10:27:12;;;;;;;3.38;0.90;;;;;;;19.75;38.54;100990.03;16115543;19;130831;-51
2023/12/23 10:32:36;;;;;;;4.25;0.73;;;;;;;19.78;38.64;101010.88;16115505;19;129579;-48
2023/12/23 10:38:05;;;;;;;4.82;1.00;;;;;;;19.82;38.59;100998.16;16112988;19;131076;-52
2023/12/23 10:43:27;;;;;;;2.88;0.70;;;;;;;19.83;38.27;100991.50;16119717;19;129860;-49
2023/12/23 10:48:51;;;;;;;2.97;0.80;;;;;;;19.86;38.32;100991.00;16113607;19;130362;-51
2023/12/23 10:54:13;;;;;;;2.88;0.80;;;;;;;19.86;37.88;100988.22;16111957;19;130896;-51
2023/12/23 10:59:35;;;;;;;3.63;1.27;;;;;;;19.85;38.25;100989.31;16114093;19;130882;-55
2023/12/23 11:05:00;;;;;;;2.65;0.75;;;;;;;19.83;38.01;101002.59;16115043;19;129514;-52
2023/12/23 11:10:23;;;;;;;4.07;0.80;;;;;;;19.79;37.87;101005.06;16109249;19;129672;-54
2023/12/23 11:15:46;;;;;;;3.20;0.77;;;;;;;19.76;37.88;101004.72;16102680;19;130882;-56
2023/12/23 11:21:18;;;;;;;4.15;0.73;;;;;;;19.74;37.80;101010.53;16112403;19;129600;-52
2023/12/23 11:26:41;;;;;;;2.63;0.70;;;;;;;19.65;38.14;100992.59;16111815;19;131679;-52
2023/12/23 11:32:12;;;;;;;5.97;1.00;;;;;;;19.62;38.48;100977.31;16110964;19;131035;-55
2023/12/23 11:37:55;;;;;;;10.45;1.20;;;;;;;19.58;38.46;100986.38;16106307;19;131124;-59
2023/12/23 11:43:18;;;;;;;4.30;0.93;;;;;;;19.52;38.77;100968.81;16107772;19;130869;-56
2023/12/23 11:48:40;;;;;;;1.95;0.60;;;;;;;19.50;38.96;100962.66;16109800;19;130929;-55
2023/12/23 11:54:02;;;;;;;3.85;0.82;;;;;;;19.48;38.77;100971.25;16105210;19;129224;-54
2023/12/23 11:59:24;;;;;;;6.07;0.80;;;;;;;19.46;39.08;100978.13;16101745;19;129552;-51
2023/12/23 12:04:46;;;;;;;6.22;1.08;;;;;;;19.45;39.46;100977.28;16103402;19;129926;-54
2023/12/23 12:10:08;;;;;;;7.85;0.75;;;;;;;19.44;39.46;100966.47;16103755;19;131025;-56
2023/12/23 12:15:30;;;;;;;2.80;0.70;;;;;;;19.42;39.30;100974.19;16110150;19;129230;-51
2023/12/23 12:20:52;;;;;;;2.30;0.70;;;;;;;19.40;39.24;100960.53;16110442;19;129607;-53
2023/12/23 12:26:15;;;;;;;6.10;1.15;;;;;;;19.38;39.20;100958.03;16106505;19;130218;-52
2023/12/23 12:31:37;;;;;;;5.05;1.00;;;;;;;19.41;39.11;100959.47;16103611;19;131537;-55
2023/12/23 12:36:59;;;;;;;7.47;0.85;;;;;;;19.49;38.95;100960.97;16117787;19;129905;-56
2023/12/23 12:42:24;;;;;;;11.27;1.48;;;;;;;19.59;39.03;100947.28;16121500;19;131805;-56
2023/12/23 12:47:48;;;;;;;8.85;0.90;;;;;;;19.66;38.85;100933.22;16115875;19;132244;-53
2023/12/23 12:53:10;;;;;;;10.27;1.27;;;;;;;19.73;38.84;100935.81;16113746;19;129645;-56
2023/12/23 12:58:32;;;;;;;8.77;1.08;;;;;;;19.73;39.19;100930.28;16114026;19;130426;-56
2023/12/23 13:03:54;;;;;;;4.55;1.00;;;;;;;19.72;39.19;100931.38;16120551;19;131461;-56
2023/12/23 13:09:17;;;;;;;9.98;1.02;;;;;;;19.72;39.30;100936.91;16119207;19;133060;-58
2023/12/23 13:14:38;;;;;;;8.30;0.98;;;;;;;19.74;39.26;100941.16;16119449;19;131203;-56
2023/12/23 13:20:00;;;;;;;15.13;1.55;;;;;;;19.79;38.72;100943.97;16116464;19;130003;-57
2023/12/23 13:25:22;;;;;;;17.42;1.35;;;;;;;19.82;38.77;100962.06;16114214;19;130793;-57
2023/12/23 13:30:45;;;;;;;7.97;1.08;;;;;;;19.83;38.96;100958.19;16112994;19;131170;-58
2023/12/23 13:36:08;;;;;;;9.75;1.13;;;;;;;19.80;38.70;100962.31;16111052;19;130010;-56
2023/12/23 13:41:30;;;;;;;9.10;1.10;;;;;;;19.77;39.38;100960.03;16115225;19;131188;-59
2023/12/23 13:46:53;;;;;;;7.13;1.35;;;;;;;19.72;39.45;100970.22;16119418;19;129782;-59
2023/12/23 13:52:17;;;;;;;4.03;1.10;;;;;;;19.65;39.34;100975.94;16115929;19;130635;-54
2023/12/23 13:57:39;;;;;;;14.80;1.20;;;;;;;19.58;38.99;100981.66;16115011;19;129650;-57
2023/12/23 14:03:02;;;;;;;7.32;1.08;;;;;;;19.52;39.22;100979.91;16113875;19;129270;-60
2023/12/23 14:08:27;;;;;;;9.50;1.05;;;;;;;19.45;39.34;100988.38;16112620;19;130463;-57
2023/12/23 14:13:49;;;;;;;11.20;1.30;;;;;;;19.37;39.41;100986.88;16119633;19;130040;-56
2023/12/23 14:19:11;;;;;;;16.48;1.45;;;;;;;19.32;39.24;100983.16;16111564;19;133633;-54
2023/12/23 14:24:33;;;;;;;12.80;1.40;;;;;;;19.21;39.32;100985.75;16101120;19;130746;-56
2023/12/23 14:29:55;;;;;;;15.38;2.05;;;;;;;19.13;39.28;100986.13;16101931;19;130963;-55
2023/12/23 14:35:17;;;;;;;22.55;2.25;;;;;;;19.11;39.86;100993.00;16093471;19;131630;-58
2023/12/23 14:40:39;;;;;;;11.50;1.50;;;;;;;19.13;39.43;100993.59;16088485;19;130380;-55
2023/12/23 14:46:01;;;;;;;12.35;0.98;;;;;;;19.18;39.67;101007.56;16106383;19;130745;-58
2023/12/23 14:51:23;;;;;;;21.15;2.28;;;;;;;19.31;40.07;100995.34;16106213;19;131013;-59
2023/12/23 14:56:46;;;;;;;36.58;2.92;;;;;;;19.52;40.13;101004.88;16107822;19;131186;-58
2023/12/23 15:02:09;;;;;;;41.30;5.45;;;;;;;19.78;40.19;101000.59;16100405;19;130435;-58
2023/12/23 15:07:31;;;;;;;32.42;6.35;;;;;;;19.96;40.42;101007.00;16095098;19;131435;-58
2023/12/23 15:12:53;;;;;;;52.45;6.35;;;;;;;20.07;40.28;101005.22;16098606;19;130461;-58
2023/12/23 15:18:15;;;;;;;38.30;7.45;;;;;;;20.13;40.04;101018.13;16103658;19;130211;-58
2023/12/23 15:23:37;;;;;;;43.40;6.22;;;;;;;20.12;39.91;101022.81;16091555;19;132022;-57
2023/12/23 15:28:59;;;;;;;43.53;5.60;;;;;;;20.09;40.14;101031.69;16097727;19;131622;-57
2023/12/23 15:34:21;;;;;;;34.08;5.85;;;;;;;20.02;39.67;101031.00;16113087;19;129618;-57
2023/12/23 15:39:43;;;;;;;39.00;5.53;;;;;;;19.96;39.88;101026.44;16111159;19;129769;-58
2023/12/23 15:45:06;;;;;;;28.92;4.20;;;;;;;19.88;40.13;101024.91;16114931;19;130813;-58
2023/12/23 15:50:28;;;;;;;21.88;4.68;;;;;;;19.81;40.48;101029.81;16113572;19;130785;-57
2023/12/23 15:55:50;;;;;;;19.75;4.15;;;;;;;19.75;40.46;101031.66;16107045;19;131701;-57
2023/12/23 16:01:13;;;;;;;27.38;4.00;;;;;;;19.71;40.46;101037.94;16110979;19;129621;-58
2023/12/23 16:06:35;;;;;;;18.70;3.80;;;;;;;19.65;41.68;101040.63;16109665;19;130588;-58
2023/12/23 16:11:57;;;;;;;20.33;3.78;;;;;;;19.72;41.41;101031.28;16108076;19;129321;-58
2023/12/23 16:17:19;;;;;;;17.35;3.30;;;;;;;19.87;41.54;101052.94;16110219;19;129552;-58
2023/12/23 16:22:41;;;;;;;13.45;2.95;;;;;;;20.09;41.58;101058.59;16108385;19;130191;-58
2023/12/23 16:28:03;;;;;;;25.23;3.95;;;;;;;20.33;41.83;101052.84;16108554;19;131716;-56
2023/12/23 16:33:25;;;;;;;30.77;4.63;;;;;;;20.54;42.14;101057.63;16109233;19;129770;-57
2023/12/23 16:38:47;;;;;;;50.33;4.88;;;;;;;20.77;42.77;101052.97;16109421;19;130868;-59
2023/12/23 16:44:09;;;;;;;51.30;5.15;;;;;;;20.96;42.81;101055.41;16110558;19;131064;-60
2023/12/23 16:49:31;;;;;;;48.80;6.20;;;;;;;21.09;42.39;101048.63;16109519;19;132930;-58
2023/12/23 16:55:03;;;;;;;33.78;5.65;;;;;;;21.21;41.80;101064.06;16109166;19;129602;-60
2023/12/23 17:00:25;;;;;;;39.65;6.13;;;;;;;21.31;41.47;101054.13;16103455;19;131880;-60
2023/12/23 17:05:46;;;;;;;25.38;5.50;;;;;;;21.34;41.04;101061.97;16106369;19;132922;-60
2023/12/23 17:11:08;;;;;;;23.60;5.63;;;;;;;21.36;40.32;101074.50;16106522;19;131361;-60
2023/12/23 17:16:30;;;;;;;21.48;4.93;;;;;;;21.40;40.31;101074.00;16105067;19;130757;-60
2023/12/23 17:21:53;;;;;;;18.05;4.05;;;;;;;21.40;40.07;101074.84;16115308;19;129899;-60
2023/12/23 17:27:15;;;;;;;19.88;3.78;;;;;;;21.39;39.56;101087.06;16120022;19;129618;-60
2023/12/23 17:32:36;;;;;;;18.65;4.30;;;;;;;21.37;39.17;101073.41;16119507;19;131491;-60
2023/12/23 17:37:59;;;;;;;13.80;3.67;;;;;;;21.36;39.17;101073.69;16117668;19;131123;-59
2023/12/23 17:43:21;;;;;;;14.13;3.08;;;;;;;21.33;38.83;101076.97;16118580;19;129599;-60
2023/12/23 17:48:43;;;;;;;18.10;3.20;;;;;;;21.32;38.71;101078.06;16113658;19;131357;-60
2023/12/23 17:54:05;;;;;;;7.70;2.45;;;;;;;21.28;38.84;101063.84;16116936;19;129607;-60
2023/12/23 17:59:27;;;;;;;13.68;2.85;;;;;;;21.27;38.30;101078.03;16113885;19;130826;-60
2023/12/23 18:04:49;;;;;;;10.20;3.72;;;;;;;21.25;38.68;101092.19;16113827;19;129807;-61
2023/12/23 18:10:11;;;;;;;20.35;8.40;;;;;;;21.18;38.57;101092.38;16112547;19;130040;-58
2023/12/23 18:15:35;;;;;;;27.70;9.07;;;;;;;21.16;38.79;101077.91;16114283;19;131653;-60
2023/12/23 18:20:57;;;;;;;24.45;8.20;;;;;;;21.17;39.08;101076.78;16117808;19;131510;-59
2023/12/23 18:26:19;;;;;;;21.83;7.47;;;;;;;21.21;39.11;101068.78;16115243;19;129888;-60
2023/12/23 18:31:42;;;;;;;28.10;7.90;;;;;;;21.25;39.44;101064.34;16113215;19;130491;-60
2023/12/23 18:37:03;;;;;;;24.83;6.68;;;;;;;21.30;39.21;101063.56;16108926;19;131153;-60
2023/12/23 18:42:25;;;;;;;28.92;6.97;;;;;;;21.31;39.63;101051.34;16111679;19;130823;-60
2023/12/23 18:47:48;;;;;;;25.55;6.75;;;;;;;21.35;39.89;101038.59;16111771;19;130990;-61
2023/12/23 18:53:10;;;;;;;24.40;5.85;;;;;;;21.37;39.78;101050.31;16108867;19;131168;-59
2023/12/23 18:58:31;;;;;;;25.63;6.30;;;;;;;21.39;40.03;101042.53;16099411;19;132092;-61
2023/12/23 19:03:53;;;;;;;36.28;6.80;;;;;;;21.41;40.09;101057.03;16113077;19;129382;-60
2023/12/23 19:09:15;;;;;;;35.13;6.80;;;;;;;21.41;39.95;101068.19;16112487;19;130617;-59
2023/12/23 19:14:37;;;;;;;46.55;7.03;;;;;;;21.38;40.14;101057.56;16106094;19;130596;-60
2023/12/23 19:20:02;;;;;;;46.00;8.32;;;;;;;21.38;39.96;101063.13;16110128;19;129706;-60
2023/12/23 19:25:24;;;;;;;;;;;;;;;21.35;40.39;101053.34;16111419;19;129831;-60
2023/12/23 19:30:46;;;;;;;45.97;7.18;;;;;;;21.42;40.30;101050.34;16109260;19;130972;-60
2023/12/23 19:36:11;;;;;;;47.95;7.05;;;;;;;21.45;40.39;101041.47;16108300;19;131320;-61
2023/12/23 19:41:33;;;;;;;55.05;6.53;;;;;;;21.49;40.73;101047.38;16109723;19;130571;-60
2023/12/23 19:46:55;;;;;;;44.25;6.47;;;;;;;21.52;40.87;101044.94;16109572;19;129897;-60
2023/12/23 19:52:17;;;;;;;47.42;6.63;;;;;;;21.51;41.22;101051.59;16107349;19;131094;-62
2023/12/23 19:57:39;;;;;;;54.03;6.65;;;;;;;21.45;41.34;101055.41;16106755;19;130550;-59
2023/12/23 20:03:01;;;;;;;49.22;5.97;;;;;;;21.38;41.63;101063.13;16110391;19;129891;-60
2023/12/23 20:08:23;;;;;;;33.10;5.68;;;;;;;21.29;41.25;101059.13;16102045;19;130583;-59
2023/12/23 20:13:45;;;;;;;27.45;5.07;;;;;;;21.19;41.62;101054.28;16107220;19;131506;-59
2023/12/23 20:19:07;;;;;;;45.78;5.97;;;;;;;21.10;41.97;101062.25;16105465;19;130451;-62
2023/12/23 20:24:30;;;;;;;48.08;7.05;;;;;;;21.01;42.54;101036.81;16104199;19;131667;-59
2023/12/23 20:29:52;;;;;;;35.67;5.60;;;;;;;20.89;41.70;101048.09;16106362;19;130018;-65
2023/12/23 20:35:14;;;;;;;39.55;5.40;;;;;;;20.77;41.43;101047.41;16098546;19;131471;-60
2023/12/23 20:40:36;;;;;;;28.85;4.55;;;;;;;20.65;41.49;101044.69;16098633;19;132021;-59
2023/12/23 20:45:58;;;;;;;29.73;4.93;;;;;;;20.55;41.54;101045.41;16106576;19;130236;-60
2023/12/23 20:51:20;;;;;;;42.80;5.88;;;;;;;20.47;41.70;101043.06;16102455;19;130461;-59
2023/12/23 20:56:42;;;;;;;29.58;4.80;;;;;;;20.38;41.59;101027.94;16116173;19;129381;-60
2023/12/23 21:02:07;;;;;;;26.00;4.57;;;;;;;20.31;41.75;101018.94;16120108;19;131564;-60
2023/12/23 21:07:29;;;;;;;23.73;4.43;;;;;;;20.27;41.83;101025.00;16121252;19;130534;-58
2023/12/23 21:12:51;;;;;;;23.98;3.90;;;;;;;20.26;42.05;101031.66;16119465;19;131925;-58
2023/12/23 21:18:13;;;;;;;32.13;3.80;;;;;;;20.22;41.59;101033.25;16116835;19;130184;-59
2023/12/23 21:23:35;;;;;;;34.35;3.83;;;;;;;20.18;41.50;101032.09;16122845;19;129264;-59
2023/12/23 21:28:58;;;;;;;24.10;3.25;;;;;;;20.15;41.93;101035.38;16116274;19;129754;-59
2023/12/23 21:34:20;;;;;;;21.58;2.80;;;;;;;20.09;41.58;101025.25;16113193;19;130439;-59
2023/12/23 21:39:42;;;;;;;29.83;4.10;;;;;;;20.03;41.83;101009.63;16114800;19;130105;-59
2023/12/23 21:45:04;;;;;;;18.73;2.42;;;;;;;19.96;41.45;101013.38;16114751;19;129996;-59
2023/12/23 21:50:26;;;;;;;24.00;3.28;;;;;;;19.90;41.76;101006.06;16119207;19;130141;-59
2023/12/23 21:55:49;;;;;;;15.35;3.17;;;;;;;19.83;41.60;100992.38;16120040;19;130164;-59
2023/12/23 22:01:12;;;;;;;15.80;3.00;;;;;;;19.77;41.77;100989.75;16116146;19;129831;-59
2023/12/23 22:06:33;;;;;;;11.45;2.80;;;;;;;19.70;41.89;100995.47;16114805;19;129707;-59
2023/12/23 22:11:55;;;;;;;15.10;2.80;;;;;;;19.64;41.84;101008.44;16113950;19;130681;-60
2023/12/23 22:17:17;;;;;;;12.30;2.90;;;;;;;19.57;41.69;101001.34;16116012;19;130362;-59
2023/12/23 22:22:39;;;;;;;12.13;2.40;;;;;;;19.51;41.69;100997.66;16114531;19;129686;-59
2023/12/23 22:28:01;;;;;;;13.55;3.05;;;;;;;19.45;41.73;100979.22;16119678;19;130009;-59
2023/12/23 22:33:23;;;;;;;10.48;3.28;;;;;;;19.39;41.46;100953.31;16113422;19;132179;-59
2023/12/23 22:38:49;;;;;;;10.65;2.40;;;;;;;19.32;41.97;100936.00;16116599;19;130266;-59
2023/12/23 22:44:11;;;;;;;10.75;2.70;;;;;;;19.26;41.79;100918.44;16115263;19;129636;-59
2023/12/23 22:49:32;;;;;;;9.52;2.85;;;;;;;19.21;41.86;100916.41;16115929;19;130617;-59
2023/12/23 22:54:54;;;;;;;10.98;2.47;;;;;;;19.17;41.48;100892.19;16117369;19;129572;-59
2023/12/23 23:00:18;;;;;;;6.25;2.03;;;;;;;19.13;41.50;100897.38;16112106;19;132943;-59
2023/12/23 23:05:40;;;;;;;11.23;1.92;;;;;;;19.12;41.22;100892.06;16116870;19;129530;-59
2023/12/23 23:11:02;;;;;;;8.65;2.05;;;;;;;19.07;41.66;100904.78;16114934;19;131348;-59
2023/12/23 23:16:24;;;;;;;10.07;2.72;;;;;;;19.05;41.47;100906.09;16111213;19;134082;-59
2023/12/23 23:21:46;;;;;;;7.03;2.03;;;;;;;19.02;41.55;100889.94;16114207;19;129120;-59
2023/12/23 23:27:08;;;;;;;9.95;2.25;;;;;;;18.97;41.59;100881.56;16112472;19;130373;-59
2023/12/23 23:32:30;;;;;;;5.18;1.63;;;;;;;18.92;41.36;100882.31;16115463;19;129636;-59
2023/12/23 23:37:52;;;;;;;5.45;1.67;;;;;;;18.88;41.27;100867.25;16110482;19;131415;-59
2023/12/23 23:43:14;;;;;;;6.25;1.77;;;;;;;18.86;41.38;100895.25;16108503;19;129655;-59
2023/12/23 23:48:36;;;;;;;7.05;2.05;;;;;;;18.84;41.26;100893.78;16106625;19;132393;-59
2023/12/23 23:53:58;;;;;;;8.25;1.83;;;;;;;18.81;41.03;100910.94;16110909;19;130731;-59
2023/12/23 23:59:19;;;;;;;5.30;2.00;;;;;;;18.78;40.98;100915.03;16104439;19;130611;-59
